Time;durP1;ratioP1;P1;durP2;ratioP2;P2;SDS_P1;SDS_P2;PMS_P1;PMS_P2;Temp;Humidity;BMP_temperature;BMP_pressure;BME280_temperature;BME280_humidity;BME280_pressure;Samples;Min_cycle;Max_cycle;Signal;HPM_P1;HPM_P2
2021/11/03 00:02:19;;;;;;;7.83;3.77;;;6.10;99.90;;;6.95;100.00;96700.50;5035032;28;20507;-80
2021/11/03 00:04:48;;;;;;;3.80;3.30;;;6.10;99.90;;;6.97;100.00;96695.94;5035698;28;20449;-80
2021/11/03 00:07:17;;;;;;;5.53;3.17;;;6.10;99.90;;;6.97;100.00;96690.75;5041844;28;20471;-80
2021/11/03 00:09:47;;;;;;;3.70;2.50;;;6.20;99.90;;;6.98;100.00;96687.94;5025082;28;20521;-80
2021/11/03 00:12:17;;;;;;;3.80;2.60;;;6.30;99.90;;;6.99;100.00;96689.53;5030548;28;20985;-80
2021/11/03 00:14:46;;;;;;;3.33;2.67;;;6.40;99.90;;;6.99;100.00;96673.13;5022540;28;20454;-80
2021/11/03 00:17:14;;;;;;;3.83;2.77;;;6.40;99.90;;;6.99;100.00;96670.53;5033428;28;20816;-80
2021/11/03 00:19:43;;;;;;;4.00;3.47;;;6.30;99.90;;;7.00;100.00;96669.56;5019841;28;20530;-80
2021/11/03 00:22:12;;;;;;;6.70;3.60;;;6.20;99.90;;;6.97;100.00;96667.34;5025129;28;20485;-80
2021/11/03 00:24:41;;;;;;;5.30;3.60;;;6.40;99.90;;;6.94;100.00;96665.94;5026094;28;20462;-80
2021/11/03 00:27:12;;;;;;;6.70;4.10;;;6.40;99.90;;;6.96;100.00;96658.75;5025194;28;20535;-80
2021/11/03 00:29:41;;;;;;;5.20;3.57;;;6.30;99.90;;;6.97;100.00;96655.16;5026837;28;20513;-80
2021/11/03 00:32:11;;;;;;;5.50;3.60;;;6.30;99.90;;;6.96;100.00;96639.75;5028712;28;20563;-80
2021/11/03 00:34:40;;;;;;;5.83;3.00;;;6.20;99.90;;;6.89;100.00;96631.16;5029620;28;20484;-80
2021/11/03 00:37:08;;;;;;;5.60;2.30;;;6.20;99.90;;;6.81;100.00;96624.34;5029490;28;20496;-80
2021/11/03 00:39:37;;;;;;;3.53;2.70;;;6.10;99.90;;;6.86;100.00;96611.56;5029532;28;21020;-80
2021/11/03 00:42:06;;;;;;;3.57;2.17;;;6.30;99.90;;;6.89;100.00;96612.97;5020469;28;20889;-81
2021/11/03 00:44:37;;;;;;;3.50;2.70;;;6.20;99.90;;;6.89;100.00;96615.56;5025966;28;20516;-80
2021/11/03 00:47:06;;;;;;;4.30;1.97;;;6.10;99.90;;;6.91;100.00;96613.56;5028715;28;20736;-80
2021/11/03 00:49:34;;;;;;;4.17;2.13;;;6.20;99.90;;;6.92;100.00;96615.16;5028383;28;20492;-80
2021/11/03 00:52:04;;;;;;;2.37;1.93;;;6.20;99.90;;;6.92;100.00;96599.59;5032314;28;20563;-80
2021/11/03 00:54:32;;;;;;;1.73;1.63;;;6.20;99.90;;;6.91;100.00;96611.75;5040328;28;20645;-80
2021/11/03 00:57:01;;;;;;;2.30;2.00;;;6.20;99.90;;;6.90;100.00;96614.59;5030609;28;20520;-80
2021/11/03 00:59:30;;;;;;;2.90;1.90;;;6.30;99.90;;;6.91;100.00;96623.94;5033513;28;20559;-80
2021/11/03 01:02:00;;;;;;;3.00;1.90;;;6.30;99.90;;;6.89;100.00;96620.75;5027913;28;20457;-80
2021/11/03 01:04:29;;;;;;;4.23;2.10;;;6.20;99.90;;;6.90;100.00;96623.19;5026425;28;20458;-80
2021/11/03 01:06:58;;;;;;;2.40;2.20;;;6.20;99.90;;;6.89;100.00;96616.38;5030536;28;20544;-80
2021/11/03 01:09:27;;;;;;;2.63;2.43;;;6.20;99.90;;;6.84;100.00;96617.94;5028387;28;20971;-80
2021/11/03 01:11:56;;;;;;;2.20;2.00;;;6.00;99.90;;;6.79;100.00;96617.75;5033991;28;21095;-80
2021/11/03 01:14:25;;;;;;;2.87;2.30;;;5.80;99.90;;;6.76;100.00;96616.38;5040645;28;20517;-80
2021/11/03 01:16:53;;;;;;;5.93;2.37;;;5.80;99.90;;;6.78;100.00;96618.75;5036638;28;20527;-80
2021/11/03 01:19:23;;;;;;;4.70;2.60;;;5.80;99.90;;;6.82;100.00;96617.38;5044558;28;20492;-80
2021/11/03 01:21:52;;;;;;;12.00;2.63;;;6.00;99.90;;;6.85;100.00;96614.38;5023581;28;20466;-80
2021/11/03 01:24:20;;;;;;;6.30;2.83;;;6.00;99.90;;;6.84;100.00;96610.97;5033572;28;20518;-80
2021/11/03 01:26:49;;;;;;;2.40;2.20;;;5.90;99.90;;;6.86;100.00;96600.38;5030594;28;20535;-80
2021/11/03 01:29:17;;;;;;;8.07;2.60;;;5.90;99.90;;;6.90;100.00;96601.59;5035040;28;20457;-80
2021/11/03 01:31:46;;;;;;;3.67;2.80;;;6.00;99.90;;;6.89;100.00;96600.78;5029968;28;21056;-80
2021/11/03 01:34:15;;;;;;;2.63;2.43;;;6.00;99.90;;;6.86;100.00;96601.19;5030000;28;20996;-80
2021/11/03 01:36:44;;;;;;;2.70;2.40;;;6.00;99.90;;;6.85;100.00;96591.78;5031104;28;20453;-80
2021/11/03 01:39:13;;;;;;;7.63;2.50;;;6.00;99.90;;;6.88;100.00;96599.19;5033764;28;20497;-80
2021/11/03 01:41:42;;;;;;;3.70;2.93;;;6.00;99.90;;;6.87;100.00;96602.00;5023948;28;20545;-80
2021/11/03 01:44:13;;;;;;;3.50;3.13;;;6.00;99.90;;;6.90;100.00;96593.78;5035067;28;20516;-80
2021/11/03 01:46:45;;;;;;;3.53;2.73;;;6.10;99.90;;;6.92;100.00;96589.19;5033074;28;20490;-80
2021/11/03 01:49:18;;;;;;;4.10;2.70;;;6.00;99.90;;;6.97;100.00;96592.81;5038439;28;21913;-80
2021/11/03 01:51:56;;;;;;;3.20;2.90;;;6.10;99.90;;;6.95;100.00;96599.19;5033665;28;20470;-80
2021/11/03 01:54:31;;;;;;;7.20;2.73;;;6.00;99.90;;;6.90;100.00;96592.00;5032391;28;20868;-80
2021/11/03 01:57:05;;;;;;;5.63;3.07;;;6.00;99.90;;;6.88;100.00;96591.38;5031868;28;20463;-80
2021/11/03 01:59:40;;;;;;;5.47;2.57;;;6.00;99.90;;;6.91;100.00;96592.78;5036235;28;21005;-80
2021/11/03 02:02:10;;;;;;;4.47;3.10;;;6.20;99.90;;;6.93;100.00;96590.78;5030275;28;20466;-80
2021/11/03 02:04:39;;;;;;;6.70;2.73;;;6.20;99.90;;;6.96;100.00;96587.78;5032144;28;20516;-80
2021/11/03 02:07:19;;;;;;;8.13;3.50;;;6.20;99.90;;;6.97;100.00;96584.19;5029556;28;20465;-80
2021/11/03 02:09:48;;;;;;;5.57;3.40;;;6.30;99.90;;;7.00;100.00;96582.00;5030794;28;20461;-80
2021/11/03 02:12:19;;;;;;;4.40;3.00;;;6.30;99.90;;;7.01;100.00;96572.41;5027281;28;20865;-80
2021/11/03 02:14:49;;;;;;;7.63;2.70;;;6.40;99.90;;;7.01;100.00;96575.78;5035429;28;20458;-80
2021/11/03 02:17:19;;;;;;;3.23;2.20;;;6.50;99.90;;;7.02;100.00;96563.59;5038761;28;20469;-80
2021/11/03 02:19:50;;;;;;;3.70;2.97;;;6.40;99.90;;;7.02;100.00;96563.59;5036096;28;20546;-80
2021/11/03 02:22:28;;;;;;;3.73;2.30;;;6.30;99.90;;;7.02;100.00;96569.59;5020878;28;20476;-80
2021/11/03 02:25:07;;;;;;;6.37;3.00;;;6.20;99.90;;;6.95;100.00;96578.38;5022073;28;20473;-80
2021/11/03 02:27:41;;;;;;;10.73;3.27;;;6.10;99.90;;;6.97;100.00;96571.22;5017748;28;20481;-80
2021/11/03 02:30:16;;;;;;;3.93;3.20;;;6.10;99.90;;;7.02;100.00;96571.38;5028182;28;20488;-80
2021/11/03 02:32:46;;;;;;;6.37;3.13;;;6.20;99.90;;;7.05;100.00;96570.97;5026005;28;20551;-80
2021/11/03 02:35:15;;;;;;;5.60;4.20;;;6.20;99.90;;;7.03;100.00;96567.81;5037392;28;20527;-80
2021/11/03 02:37:47;;;;;;;4.10;3.30;;;6.20;99.90;;;7.05;100.00;96566.59;5031991;28;20500;-80
2021/11/03 02:40:38;;;;;;;8.10;3.53;;;6.20;99.90;;;7.08;100.00;96573.19;5036050;28;20542;-80
2021/11/03 02:43:15;;;;;;;6.97;3.70;;;6.30;99.90;;;7.10;100.00;96568.59;5030521;28;20473;-80
2021/11/03 02:45:50;;;;;;;5.57;3.10;;;6.20;99.90;;;7.11;100.00;96562.41;5029765;28;21055;-80
2021/11/03 02:48:19;;;;;;;5.13;3.60;;;6.30;99.90;;;7.10;100.00;96560.81;5033099;28;20516;-80
2021/11/03 02:51:01;;;;;;;7.33;3.83;;;6.20;99.90;;;7.14;100.00;96554.19;5038475;28;20458;-80
2021/11/03 02:53:32;;;;;;;4.33;3.63;;;6.20;99.90;;;7.15;100.00;96555.78;5031182;28;20546;-80
2021/11/03 02:56:02;;;;;;;5.40;3.77;;;6.30;99.90;;;7.17;100.00;96553.00;5030932;28;20466;-80
2021/11/03 02:58:32;;;;;;;5.63;3.63;;;6.30;99.90;;;7.14;100.00;96548.19;5036505;28;20492;-80
2021/11/03 03:01:12;;;;;;;4.70;3.50;;;6.30;99.90;;;7.11;100.00;96546.81;5027205;28;20556;-80
2021/11/03 03:03:44;;;;;;;5.27;3.70;;;6.40;99.90;;;7.16;100.00;96556.59;5034859;28;20615;-80
2021/11/03 03:06:23;;;;;;;4.97;3.70;;;6.30;99.90;;;7.17;100.00;96551.19;5037619;28;20869;-80
2021/11/03 03:08:53;;;;;;;7.23;4.20;;;6.40;99.90;;;7.19;100.00;96549.19;5033682;28;20501;-80
2021/11/03 03:11:26;;;;;;;4.63;3.63;;;6.40;99.90;;;7.21;100.00;96547.19;5034954;28;20979;-80
2021/11/03 03:13:55;;;;;;;5.07;3.47;;;6.40;99.90;;;7.21;100.00;96542.00;5034326;28;20949;-80
2021/11/03 03:16:24;;;;;;;5.80;3.80;;;6.60;99.90;;;7.21;100.00;96533.41;5029410;28;20552;-80
2021/11/03 03:18:52;;;;;;;4.47;2.93;;;6.60;99.90;;;7.22;100.00;96535.78;5037403;28;20438;-80
2021/11/03 03:21:25;;;;;;;5.83;3.30;;;6.50;99.90;;;7.22;100.00;96540.97;5036371;28;20499;-80
2021/11/03 03:23:56;;;;;;;16.50;3.93;;;6.50;99.90;;;7.22;100.00;96533.19;5019404;28;20500;-80
2021/11/03 03:26:26;;;;;;;4.53;3.27;;;6.40;99.90;;;7.20;100.00;96530.00;5028615;28;20494;-80
2021/11/03 03:28:56;;;;;;;3.87;3.43;;;6.40;99.90;;;7.22;100.00;96529.81;5023609;28;20531;-80
2021/11/03 03:31:27;;;;;;;5.20;3.57;;;6.40;99.90;;;7.22;100.00;96532.41;5035051;28;20509;-80
2021/11/03 03:34:00;;;;;;;4.57;3.73;;;6.40;99.90;;;7.22;100.00;96535.78;5037464;28;20516;-80
2021/11/03 03:36:30;;;;;;;5.73;3.27;;;6.40;99.90;;;7.22;100.00;96532.41;5035828;28;20461;-80
2021/11/03 03:38:59;;;;;;;5.00;3.63;;;6.30;99.90;;;7.23;100.00;96523.56;5029776;28;21028;-80
2021/11/03 03:41:30;;;;;;;5.40;3.70;;;6.40;99.90;;;7.21;100.00;96525.59;5031486;28;20496;-80
2021/11/03 03:43:58;;;;;;;5.90;3.33;;;6.30;99.90;;;7.19;100.00;96520.59;5031112;28;20520;-80
2021/11/03 03:46:27;;;;;;;5.40;3.53;;;6.40;99.90;;;7.24;100.00;96520.78;5027983;28;20488;-80
2021/11/03 03:48:56;;;;;;;3.63;3.00;;;6.40;99.90;;;7.21;100.00;96520.41;5033884;28;20965;-80
2021/11/03 03:51:26;;;;;;;5.83;3.40;;;6.30;99.90;;;7.23;100.00;96518.38;5024539;28;20917;-80
2021/11/03 03:53:55;;;;;;;5.27;3.20;;;6.40;99.90;;;7.26;100.00;96517.97;5032776;28;20454;-79
2021/11/03 03:56:24;;;;;;;4.20;2.57;;;6.40;99.90;;;7.28;100.00;96515.97;5028685;28;20473;-80
2021/11/03 03:58:54;;;;;;;3.07;2.50;;;6.50;99.90;;;7.30;100.00;96514.75;5036491;28;20497;-80
2021/11/03 04:01:27;;;;;;;4.27;2.83;;;6.60;99.90;;;7.32;100.00;96511.97;5019632;28;20494;-79
2021/11/03 04:03:56;;;;;;;2.60;2.40;;;6.60;99.90;;;7.34;100.00;96510.75;5032428;28;20526;-80
2021/11/03 04:06:25;;;;;;;2.63;2.23;;;6.60;99.90;;;7.35;100.00;96511.56;5029076;28;21227;-80
2021/11/03 04:08:54;;;;;;;10.63;2.40;;;6.60;99.90;;;7.35;100.00;96511.56;5037686;28;20523;-80
2021/11/03 04:11:22;;;;;;;2.67;2.43;;;6.60;99.90;;;7.36;100.00;96503.53;5029020;28;20515;-79
2021/11/03 04:13:51;;;;;;;2.50;2.30;;;6.60;99.90;;;7.36;100.00;96495.75;5027680;28;20505;-80
2021/11/03 04:16:20;;;;;;;2.67;2.43;;;6.60;99.90;;;7.39;100.00;96495.31;5034372;28;20457;-80
2021/11/03 04:18:49;;;;;;;3.57;2.27;;;6.60;99.90;;;7.40;100.00;96496.13;5025994;28;20466;-80
2021/11/03 04:21:19;;;;;;;7.93;2.30;;;6.60;99.90;;;7.38;100.00;96496.34;5018240;28;20952;-80
2021/11/03 04:23:52;;;;;;;6.00;2.60;;;6.60;99.90;;;7.38;100.00;96503.34;5027241;28;20518;-79
2021/11/03 04:26:26;;;;;;;2.50;2.30;;;6.60;99.90;;;7.35;100.00;96501.97;5035243;28;20571;-80
2021/11/03 04:28:55;;;;;;;2.47;2.27;;;6.60;99.90;;;7.37;100.00;96499.94;5037466;28;20465;-80
2021/11/03 04:31:26;;;;;;;5.00;2.00;;;6.60;99.90;;;7.39;100.00;96497.94;5034222;28;20900;-80
2021/11/03 04:33:54;;;;;;;146.23;59.00;;;6.60;99.90;;;7.37;100.00;96492.16;5032368;28;20837;-82
2021/11/03 04:36:24;;;;;;;6.30;2.77;;;6.60;99.90;;;7.39;100.00;96486.75;5029783;28;20487;-78
2021/11/03 04:39:01;;;;;;;2.40;2.00;;;6.60;99.90;;;7.38;100.00;96485.16;5029907;28;20461;-80
2021/11/03 04:41:30;;;;;;;5.63;1.80;;;6.50;99.90;;;7.40;100.00;96472.72;5039237;28;20575;-80
2021/11/03 04:43:58;;;;;;;11.20;2.20;;;6.60;99.90;;;7.42;100.00;96481.13;5031817;28;20794;-80
2021/11/03 04:46:28;;;;;;;1.50;1.40;;;6.60;99.90;;;7.37;100.00;96476.53;5037400;28;21031;-80
2021/11/03 04:48:57;;;;;;;1.87;1.77;;;6.60;99.90;;;7.42;100.00;96466.34;5032674;28;20765;-77
2021/11/03 04:51:27;;;;;;;14.13;5.50;;;6.70;99.90;;;7.43;100.00;96461.91;5040605;28;20503;-78
2021/11/03 04:53:56;;;;;;;3.30;2.40;;;6.70;99.90;;;7.44;100.00;96453.91;5035615;28;21027;-76
2021/11/03 04:56:32;;;;;;;2.10;1.90;;;6.70;99.90;;;7.46;100.00;96446.69;5031139;28;21169;-78
2021/11/03 04:59:01;;;;;;;1.80;1.50;;;6.70;99.90;;;7.46;100.00;96451.13;5032477;28;20955;-77
2021/11/03 05:01:31;;;;;;;1.80;1.70;;;6.70;99.90;;;7.48;100.00;96443.91;5033750;28;20497;-78
2021/11/03 05:04:01;;;;;;;6.73;1.53;;;6.70;99.90;;;7.49;100.00;96445.50;5038016;28;20503;-77
2021/11/03 05:06:36;;;;;;;5.47;1.87;;;6.70;99.90;;;7.49;100.00;96440.31;5029584;28;20811;-77
2021/11/03 05:09:07;;;;;;;2.30;1.77;;;6.70;99.90;;;7.48;100.00;96439.50;5034173;28;20444;-77
2021/11/03 05:11:37;;;;;;;1.80;1.70;;;6.70;99.90;;;7.49;100.00;96425.50;5034258;28;20460;-77
2021/11/03 05:14:06;;;;;;;3.87;1.77;;;6.70;99.90;;;7.50;100.00;96427.09;5027097;28;20458;-77
2021/11/03 05:16:37;;;;;;;1.97;1.67;;;6.70;99.90;;;7.45;100.00;96419.13;5032460;28;20511;-77
2021/11/03 05:19:06;;;;;;;22.40;14.33;;;6.70;99.90;;;7.41;100.00;96424.94;5024598;28;20808;-81
2021/11/03 05:21:40;;;;;;;8.20;4.27;;;6.60;99.90;;;7.40;100.00;96413.72;5031328;28;20490;-77
2021/11/03 05:24:08;;;;;;;3.43;2.03;;;6.70;99.90;;;7.42;100.00;96414.34;5026453;28;20950;-80
2021/11/03 05:26:37;;;;;;;2.47;1.70;;;6.80;99.90;;;7.44;100.00;96407.13;5032115;28;20485;-77
2021/11/03 05:29:06;;;;;;;3.17;2.07;;;6.80;99.90;;;7.47;100.00;96400.69;5029075;28;20543;-77
2021/11/03 05:31:36;;;;;;;2.87;1.60;;;6.70;99.90;;;7.48;100.00;96390.09;5030275;28;20465;-79
2021/11/03 05:34:04;;;;;;;3.53;2.10;;;6.80;99.90;;;7.51;100.00;96394.88;5031838;28;20451;-78
2021/11/03 05:36:37;;;;;;;1.67;1.57;;;6.80;99.90;;;7.51;100.00;96394.06;5031900;28;20470;-79
2021/11/03 05:39:11;;;;;;;2.20;1.30;;;6.90;99.90;;;7.52;100.00;96393.06;5029307;28;20472;-80
2021/11/03 05:41:40;;;;;;;1.80;1.70;;;6.90;99.90;;;7.54;100.00;96391.06;5038103;28;20605;-79
2021/11/03 05:44:12;;;;;;;6.10;1.80;;;6.90;99.90;;;7.50;100.00;96385.47;5032369;28;20445;-79
2021/11/03 05:46:46;;;;;;;1.90;1.70;;;7.00;99.90;;;7.50;100.00;96385.47;5032310;28;20469;-79
2021/11/03 05:49:17;;;;;;;1.60;1.50;;;6.90;99.90;;;7.46;100.00;96381.69;5031235;28;20445;-79
2021/11/03 05:51:51;;;;;;;2.30;1.83;;;7.00;99.90;;;7.48;100.00;96371.88;5032348;28;20520;-78
2021/11/03 05:54:22;;;;;;;2.93;2.20;;;6.90;99.90;;;7.51;100.00;96360.25;5030779;28;20446;-79
2021/11/03 05:56:51;;;;;;;4.30;1.67;;;7.00;99.90;;;7.48;100.00;96358.09;5037272;28;20446;-78
2021/11/03 05:59:19;;;;;;;2.33;2.07;;;7.00;99.90;;;7.51;100.00;96360.25;5033208;28;20458;-79
2021/11/03 06:01:49;;;;;;;1.57;1.47;;;6.90;99.90;;;7.54;100.00;96360.66;5032408;28;20525;-79
2021/11/03 06:04:18;;;;;;;1.83;1.73;;;6.90;99.90;;;7.56;100.00;96369.06;5032989;28;20478;-78
2021/11/03 06:06:47;;;;;;;3.93;2.00;;;7.00;99.90;;;7.57;100.00;96356.81;5027805;28;20481;-78
2021/11/03 06:09:16;;;;;;;2.93;1.47;;;6.90;99.90;;;7.56;100.00;96342.25;5035445;28;20500;-79
2021/11/03 06:11:48;;;;;;;3.50;1.57;;;7.00;99.90;;;7.60;100.00;96359.81;5033762;28;21031;-79
2021/11/03 06:14:18;;;;;;;1.83;1.73;;;7.00;99.90;;;7.58;100.00;96353.22;5033121;28;20441;-79
2021/11/03 06:16:46;;;;;;;1.60;1.50;;;6.90;99.90;;;7.56;100.00;96347.44;5041225;28;20489;-79
2021/11/03 06:19:16;;;;;;;1.97;1.40;;;6.80;99.90;;;7.56;100.00;96343.03;5047407;28;20469;-79
2021/11/03 06:21:44;;;;;;;3.23;1.87;;;6.80;99.90;;;7.53;100.00;96343.44;5030180;28;21064;-79
2021/11/03 06:24:13;;;;;;;2.00;1.90;;;6.70;99.90;;;7.55;100.00;96356.25;5025497;28;20446;-79
2021/11/03 06:26:42;;;;;;;1.30;1.20;;;6.90;99.90;;;7.58;100.00;96363.63;5038024;28;20527;-79
2021/11/03 06:29:11;;;;;;;1.60;1.50;;;6.90;99.90;;;7.55;100.00;96354.44;5028975;28;20934;-79
2021/11/03 06:31:40;;;;;;;1.63;1.53;;;6.80;99.90;;;7.59;100.00;96349.63;5041299;28;20495;-79
2021/11/03 06:34:08;;;;;;;1.63;1.50;;;6.80;99.90;;;7.55;100.00;96351.03;5044157;28;20984;-79
2021/11/03 16:40:24;;;;;;;2.53;1.70;;;8.10;99.90;;;9.02;100.00;96466.63;5006753;28;20538;-78
2021/11/03 16:42:54;;;;;;;1.50;1.40;;;8.10;99.90;;;8.98;100.00;96470.72;5026929;28;20485;-78
2021/11/03 16:49:32;;;;;;;1.87;1.30;;;8.10;99.90;;;9.00;100.00;96480.91;5027617;28;20947;-79
2021/11/03 16:56:29;;;;;;;2.10;1.30;;;8.10;99.90;;;9.03;100.00;96480.47;5025148;28;20485;-78
2021/11/03 16:58:59;;;;;;;2.17;1.73;;;8.20;99.90;;;9.04;100.00;96479.47;5030859;28;20454;-78
2021/11/03 17:01:29;;;;;;;1.80;1.40;;;8.30;99.90;;;9.05;100.00;96478.47;5031967;28;21016;-78
2021/11/03 17:04:02;;;;;;;12.73;1.67;;;8.40;99.90;;;9.00;100.00;96492.13;5032446;28;20489;-78
2021/11/03 17:06:45;;;;;;;1.80;1.50;;;8.30;99.90;;;8.96;100.00;96490.97;5032948;28;20511;-78
2021/11/03 17:09:19;;;;;;;2.87;2.30;;;8.20;99.90;;;8.94;100.00;96487.78;5020561;28;20987;-79
2021/11/03 17:11:50;;;;;;;2.30;1.93;;;8.20;99.90;;;8.94;100.00;96489.59;5025525;28;20527;-78
2021/11/03 17:14:23;;;;;;;2.53;2.30;;;8.10;99.90;;;8.92;100.00;96486.41;5019779;28;20492;-78
2021/11/03 17:16:54;;;;;;;5.33;1.80;;;8.20;99.90;;;8.86;100.00;96495.06;5036014;28;21199;-78
2021/11/03 17:19:27;;;;;;;3.80;1.90;;;8.10;99.90;;;8.87;100.00;96492.25;5031529;28;20465;-78
2021/11/03 17:21:58;;;;;;;2.40;1.97;;;8.10;99.90;;;8.84;100.00;96500.50;5026363;28;20466;-78
2021/11/03 17:24:30;;;;;;;1.50;1.40;;;8.00;99.90;;;8.77;100.00;96507.59;5034983;28;20914;-79
2021/11/03 17:27:17;;;;;;;5.33;1.57;;;8.00;99.90;;;8.69;100.00;96501.84;5027457;28;20461;-79
2021/11/03 17:29:53;;;;;;;1.77;1.60;;;7.80;99.90;;;8.64;100.00;96502.50;5034998;28;20469;-79
2021/11/03 17:32:27;;;;;;;2.10;1.63;;;7.80;99.90;;;8.57;100.00;96499.91;5034342;28;20465;-78
2021/11/03 17:34:58;;;;;;;4.13;1.93;;;7.60;99.90;;;8.49;100.00;96505.41;5035113;28;20872;-78
2021/11/03 17:37:28;;;;;;;3.53;2.17;;;7.50;99.90;;;8.45;100.00;96499.03;5036381;28;20457;-78
2021/11/03 17:39:57;;;;;;;2.73;2.13;;;7.60;99.90;;;8.41;100.00;96492.63;5034373;28;20877;-78
2021/11/03 17:42:34;;;;;;;2.20;2.00;;;7.50;99.90;;;8.29;100.00;96502.16;5032138;28;20837;-78
2021/11/03 17:45:05;;;;;;;3.60;2.60;;;7.30;99.90;;;8.23;100.00;96502.94;5027686;28;20472;-81
2021/11/03 17:47:36;;;;;;;3.17;2.20;;;7.30;99.90;;;8.18;100.00;96507.19;5028839;28;20465;-81
2021/11/03 17:50:15;;;;;;;3.63;1.90;;;7.30;99.90;;;8.17;100.00;96511.59;5021737;28;21222;-79
2021/11/03 17:52:43;;;;;;;5.17;2.00;;;7.20;99.90;;;8.16;100.00;96515.19;5019263;28;20481;-78
2021/11/03 17:55:32;;;;;;;17.53;2.47;;;7.30;99.90;;;8.07;100.00;96521.66;5033841;28;20454;-78
2021/11/03 17:58:12;;;;;;;5.90;3.30;;;7.40;99.90;;;8.01;100.00;96525.09;5030612;28;20794;-78
2021/11/03 18:00:44;;;;;;;2.63;2.17;;;7.30;99.90;;;8.02;100.00;96524.88;5028940;28;20538;-79
2021/11/03 18:03:18;;;;;;;4.90;3.10;;;7.20;99.90;;;8.02;100.00;96522.28;5029662;28;20551;-79
2021/11/03 18:05:47;;;;;;;2.70;2.23;;;7.20;99.90;;;7.98;100.00;96528.13;5024757;28;20493;-79
2021/11/03 18:08:16;;;;;;;2.73;2.53;;;7.10;99.90;;;7.91;100.00;96524.75;5034871;28;20978;-79
2021/11/03 18:10:46;;;;;;;5.53;2.87;;;7.00;99.90;;;7.77;100.00;96525.81;5028445;28;20817;-79
2021/11/03 18:13:22;;;;;;;6.90;3.03;;;6.70;99.90;;;7.76;100.00;96524.22;5027031;28;20449;-79
2021/11/03 18:15:52;;;;;;;6.73;3.40;;;6.90;99.90;;;7.74;100.00;96515.84;5024922;28;20849;-78
2021/11/03 18:18:25;;;;;;;4.90;3.70;;;6.90;99.90;;;7.75;100.00;96517.41;5025370;28;21042;-78
2021/11/03 18:20:57;;;;;;;4.00;3.00;;;6.90;99.90;;;7.75;100.00;96512.22;5029126;28;20499;-78
2021/11/03 18:23:26;;;;;;;4.27;3.20;;;6.90;99.90;;;7.75;100.00;96518.22;5029018;28;20859;-78
2021/11/03 18:26:02;;;;;;;5.17;3.50;;;6.90;99.90;;;7.72;100.00;96517.81;5027580;28;20741;-78
2021/11/03 18:28:32;;;;;;;3.87;3.30;;;6.80;99.90;;;7.73;100.00;96527.25;5030834;28;20462;-78
2021/11/03 18:31:02;;;;;;;7.83;3.70;;;6.80;99.90;;;7.73;100.00;96529.84;5034521;28;20481;-78
2021/11/03 18:33:36;;;;;;;10.13;3.73;;;6.90;99.90;;;7.75;100.00;96528.63;5024738;28;20521;-78
2021/11/03 18:36:05;;;;;;;3.97;3.00;;;6.90;99.90;;;7.76;100.00;96525.03;5038211;28;20541;-78
2021/11/03 18:38:33;;;;;;;14.30;3.60;;;6.90;99.90;;;7.76;100.00;96534.63;5033017;28;20519;-78
2021/11/03 18:41:14;;;;;;;5.30;3.23;;;6.90;99.90;;;7.76;100.00;96537.22;5029633;28;20474;-78
2021/11/03 18:43:44;;;;;;;6.40;4.17;;;7.00;99.90;;;7.74;100.00;96536.66;5031590;28;20488;-79
2021/11/03 18:46:12;;;;;;;6.63;4.33;;;6.90;99.90;;;7.76;100.00;96532.81;5029769;28;20968;-80
2021/11/03 18:48:41;;;;;;;17.13;4.33;;;7.00;99.90;;;7.78;100.00;96535.19;5032480;28;20470;-79
2021/11/03 18:51:22;;;;;;;11.40;5.40;;;7.00;99.90;;;7.79;100.00;96529.00;5025671;28;20556;-79
2021/11/03 18:53:54;;;;;;;13.23;6.73;;;7.00;99.90;;;7.81;100.00;96527.00;5028270;28;20449;-79
2021/11/03 18:56:25;;;;;;;19.13;8.77;;;7.00;99.90;;;7.80;100.00;96531.41;5026854;28;20477;-79
2021/11/03 18:58:56;;;;;;;22.50;7.90;;;7.00;99.90;;;7.77;100.00;96538.84;5026917;28;20462;-79
2021/11/03 19:01:24;;;;;;;13.00;7.60;;;6.90;99.90;;;7.80;100.00;96533.22;5026209;28;20466;-79
2021/11/03 19:03:56;;;;;;;16.73;9.20;;;7.00;99.90;;;7.80;100.00;96544.41;5026798;28;20478;-79
2021/11/03 19:06:29;;;;;;;14.53;8.17;;;7.10;99.90;;;7.84;100.00;96547.41;5026114;28;21068;-79
2021/11/03 19:09:04;;;;;;;14.00;6.83;;;7.20;99.90;;;7.86;100.00;96532.38;5018552;28;20449;-80
2021/11/03 19:11:35;;;;;;;11.00;6.80;;;7.20;99.90;;;7.86;100.00;96545.38;5030572;28;20511;-79
2021/11/03 19:14:05;;;;;;;15.60;6.87;;;7.10;99.90;;;7.88;100.00;96538.19;5025042;28;20953;-79
2021/11/03 19:16:34;;;;;;;12.97;6.70;;;7.20;99.90;;;7.89;100.00;96550.97;5026960;28;20957;-78
2021/11/03 19:19:04;;;;;;;22.10;7.03;;;7.20;99.90;;;7.90;100.00;96551.78;5024311;28;21001;-78
2021/11/03 19:21:35;;;;;;;8.43;6.57;;;7.10;99.90;;;7.93;100.00;96556.56;5035431;28;20532;-79
2021/11/03 19:24:06;;;;;;;10.83;7.00;;;7.10;99.90;;;7.92;100.00;96550.56;5031364;28;20478;-79
2021/11/03 19:26:36;;;;;;;12.20;7.60;;;7.10;99.90;;;7.94;100.00;96547.75;5029373;28;20461;-79
2021/11/03 19:29:06;;;;;;;14.50;7.70;;;7.10;99.90;;;7.95;100.00;96555.34;5025998;28;20454;-79
2021/11/03 19:31:35;;;;;;;14.27;7.43;;;7.10;99.90;;;7.95;100.00;96560.56;5023593;28;20557;-79
2021/11/03 19:34:10;;;;;;;16.63;8.03;;;7.10;99.90;;;7.96;100.00;96567.38;5028284;28;20458;-79
2021/11/03 19:36:44;;;;;;;12.50;7.73;;;7.10;99.90;;;7.92;100.00;96571.38;5027169;28;20817;-79
2021/11/03 19:39:22;;;;;;;17.07;8.17;;;7.10;99.90;;;7.95;100.00;96570.97;5024825;28;20462;-79
2021/11/03 19:41:54;;;;;;;11.43;7.50;;;7.10;99.90;;;7.96;100.00;96579.56;5021321;28;20478;-79
2021/11/03 19:44:25;;;;;;;13.77;7.83;;;7.10;99.90;;;7.89;100.00;96578.81;5028154;28;20543;-79
2021/11/03 19:46:58;;;;;;;12.53;7.30;;;7.00;99.90;;;7.90;100.00;96573.41;5019474;28;20459;-79
2021/11/03 19:49:26;;;;;;;13.20;7.60;;;7.00;99.90;;;7.89;100.00;96584.00;5035997;28;20468;-80
2021/11/03 19:51:57;;;;;;;14.70;8.47;;;6.90;99.90;;;7.90;100.00;96583.00;5027704;28;20453;-79
2021/11/03 19:54:31;;;;;;;16.40;8.80;;;7.00;99.90;;;7.91;100.00;96582.00;5030185;28;20508;-80
2021/11/03 19:57:06;;;;;;;16.17;8.73;;;7.00;99.90;;;7.95;100.00;96590.97;5032825;28;20714;-79
2021/11/03 19:59:39;;;;;;;9.63;7.40;;;7.10;99.90;;;7.99;100.00;96597.38;5030059;28;20503;-79
2021/11/03 20:02:10;;;;;;;9.37;7.80;;;7.20;99.90;;;8.00;100.00;96599.78;5030668;28;20465;-79
2021/11/03 20:04:38;;;;;;;11.97;7.87;;;7.20;99.90;;;7.98;100.00;96596.56;5027437;28;20500;-79
2021/11/03 20:07:21;;;;;;;15.13;9.17;;;7.20;99.90;;;7.89;100.00;96600.41;5041752;28;20469;-79
2021/11/03 20:09:50;;;;;;;13.43;8.93;;;7.00;99.90;;;7.86;100.00;96613.03;5029896;28;20571;-79
2021/11/03 20:12:21;;;;;;;15.70;8.23;;;6.90;99.90;;;7.85;100.00;96616.66;5038482;28;20496;-79
2021/11/03 20:14:58;;;;;;;10.47;6.67;;;6.90;99.90;;;7.85;100.00;96612.25;5032993;28;20456;-79
2021/11/03 20:17:31;;;;;;;12.70;6.97;;;6.90;99.90;;;7.84;100.00;96607.25;5029323;28;20470;-79
2021/11/03 20:20:07;;;;;;;9.43;7.47;;;6.90;99.90;;;7.89;100.00;96615.22;5042819;28;20470;-79
2021/11/03 20:22:37;;;;;;;12.63;8.50;;;7.00;99.90;;;7.91;100.00;96611.41;5030060;28;20468;-79
2021/11/03 20:25:17;;;;;;;12.93;7.73;;;7.00;99.90;;;7.92;100.00;96612.22;5029561;28;20555;-79
2021/11/03 20:27:47;;;;;;;14.87;8.10;;;7.10;99.90;;;7.98;100.00;96611.41;5031060;28;20457;-79
2021/11/03 20:30:23;;;;;;;16.63;7.70;;;7.20;99.90;;;7.99;100.00;96610.38;5029484;28;20488;-79
2021/11/03 20:32:55;;;;;;;11.03;7.70;;;7.20;99.90;;;8.02;100.00;96610.78;5029583;28;20883;-79
2021/11/03 20:35:40;;;;;;;10.33;6.40;;;7.20;99.90;;;8.00;100.00;96607.59;5031466;28;20457;-79
2021/11/03 20:38:17;;;;;;;11.00;7.40;;;7.10;99.90;;;7.96;100.00;96610.81;5027667;28;20458;-79
2021/11/03 20:40:48;;;;;;;13.67;8.47;;;7.00;99.90;;;7.91;100.00;96611.41;5035279;28;20497;-80
2021/11/03 20:43:16;;;;;;;13.97;7.27;;;7.00;99.90;;;7.93;100.00;96611.22;5030979;28;20493;-79
2021/11/03 20:45:48;;;;;;;9.00;6.87;;;7.10;99.90;;;7.93;100.00;96608.63;5027823;28;20492;-78
2021/11/03 20:48:18;;;;;;;13.47;6.43;;;7.10;99.90;;;7.93;100.00;96608.63;5034710;28;20541;-78
2021/11/03 20:50:52;;;;;;;8.30;4.90;;;7.10;99.90;;;7.95;100.00;96612.59;5034107;28;20508;-77
2021/11/03 20:53:25;;;;;;;9.03;5.90;;;7.10;99.90;;;7.92;100.00;96614.81;5031678;28;20490;-77
2021/11/03 20:55:58;;;;;;;15.53;6.20;;;7.00;99.90;;;7.94;100.00;96612.81;5030523;28;20929;-77